Time;durP1;ratioP1;P1;durP2;ratioP2;P2;SDS_P1;SDS_P2;PMS_P1;PMS_P2;Temp;Humidity;BMP_temperature;BMP_pressure;BME280_temperature;BME280_humidity;BME280_pressure;Samples;Min_cycle;Max_cycle;Signal;HPM_P1;HPM_P2
2022/06/08 00:00:54;;;;;;;2.80;1.97;;;17.30;99.90;;;;;;7371687;19;20393;-78
2022/06/08 00:03:29;;;;;;;1.90;1.40;;;17.50;99.90;;;;;;7374284;19;20453;-79
2022/06/08 00:06:01;;;;;;;1.97;1.77;;;17.60;99.90;;;;;;7370138;19;20408;-78
2022/06/08 00:08:31;;;;;;;3.57;2.20;;;17.60;99.90;;;;;;7365642;19;20400;-78
2022/06/08 00:11:00;;;;;;;3.10;2.10;;;17.50;99.90;;;;;;7370445;19;20379;-78
2022/06/08 00:13:30;;;;;;;3.60;2.17;;;17.80;99.90;;;;;;7371249;19;20413;-79
2022/06/08 00:16:02;;;;;;;3.83;2.33;;;17.50;99.90;;;;;;7367925;19;20440;-79
2022/06/08 00:18:32;;;;;;;2.10;1.70;;;17.50;99.90;;;;;;7370200;19;20404;-79
2022/06/08 00:21:01;;;;;;;3.90;2.03;;;17.40;99.90;;;;;;7355502;19;20400;-80
2022/06/08 00:23:32;;;;;;;2.03;1.93;;;17.40;99.90;;;;;;7340730;19;20411;-77
2022/06/08 00:26:02;;;;;;;3.67;2.30;;;17.30;99.90;;;;;;7345690;19;20420;-78
2022/06/08 00:28:32;;;;;;;2.13;1.93;;;17.40;99.90;;;;;;7349045;19;20419;-79
2022/06/08 00:31:05;;;;;;;4.17;1.90;;;17.50;99.90;;;;;;7328396;19;21262;-79
2022/06/08 00:33:36;;;;;;;2.60;1.70;;;17.40;99.90;;;;;;7349617;19;20436;-79
2022/06/08 00:36:06;;;;;;;3.97;2.00;;;17.50;99.90;;;;;;7355695;19;20838;-78
2022/06/08 00:38:35;;;;;;;2.13;1.80;;;17.40;99.90;;;;;;7343359;19;21038;-79
2022/06/08 00:41:27;;;;;;;2.40;1.77;;;17.40;99.90;;;;;;7354833;19;20513;-79
2022/06/08 00:43:58;;;;;;;3.07;2.37;;;17.50;99.90;;;;;;7357361;19;20392;-78
2022/06/08 00:46:31;;;;;;;2.73;2.20;;;17.50;99.90;;;;;;7339321;19;20564;-79
2022/06/08 00:49:05;;;;;;;4.70;2.03;;;17.50;99.90;;;;;;7337354;19;20432;-78
2022/06/08 00:51:35;;;;;;;1.73;1.63;;;17.50;99.90;;;;;;7347322;19;20433;-79
2022/06/08 00:54:09;;;;;;;2.23;1.60;;;17.40;99.90;;;;;;7369704;19;21748;-79
2022/06/08 00:56:42;;;;;;;2.50;1.77;;;17.30;99.90;;;;;;7342656;19;20424;-79
2022/06/08 00:59:13;;;;;;;3.40;1.60;;;17.40;99.90;;;;;;7351523;19;22227;-79
2022/06/08 01:01:46;;;;;;;2.67;1.83;;;17.30;99.90;;;;;;7360591;19;20408;-78
2022/06/08 01:04:18;;;;;;;2.03;1.80;;;17.30;99.90;;;;;;7352428;19;20435;-78
2022/06/08 01:06:57;;;;;;;1.50;1.40;;;17.30;99.90;;;;;;7337724;19;20415;-78
2022/06/08 01:09:32;;;;;;;1.70;1.60;;;17.30;99.90;;;;;;7334623;19;20422;-78
2022/06/08 01:12:04;;;;;;;2.90;1.50;;;17.30;99.90;;;;;;7356382;19;20423;-79
2022/06/08 01:14:39;;;;;;;2.37;2.17;;;17.50;99.90;;;;;;7358193;19;20809;-78
2022/06/08 01:17:16;;;;;;;4.77;2.40;;;17.50;99.90;;;;;;7352947;19;20412;-79
2022/06/08 01:19:48;;;;;;;3.80;1.90;;;17.50;99.90;;;;;;7354915;19;20419;-79
2022/06/08 01:22:24;;;;;;;2.97;2.60;;;17.30;99.90;;;;;;7357897;19;20412;-79
2022/06/08 01:24:57;;;;;;;2.23;1.87;;;17.30;99.90;;;;;;7350662;19;20413;-79
2022/06/08 01:27:58;;;;;;;3.70;2.10;;;17.30;99.90;;;;;;7350628;19;20404;-79
2022/06/08 01:30:32;;;;;;;2.00;1.80;;;17.20;99.90;;;;;;7358656;19;20408;-79
2022/06/08 01:33:25;;;;;;;3.43;2.37;;;17.10;99.90;;;;;;7361093;19;20418;-79
2022/06/08 01:36:13;;;;;;;3.53;2.10;;;17.00;99.90;;;;;;7349731;19;20995;-78
2022/06/08 01:38:54;;;;;;;3.93;2.13;;;17.00;99.90;;;;;;7359217;19;20380;-79
2022/06/08 01:41:42;;;;;;;4.10;2.20;;;17.00;99.90;;;;;;7356326;19;20400;-78
2022/06/08 01:44:26;;;;;;;7.03;2.47;;;16.90;99.90;;;;;;7352599;19;20416;-79
2022/06/08 01:47:08;;;;;;;2.47;2.27;;;16.90;99.90;;;;;;7353650;19;20447;-78
2022/06/08 01:49:43;;;;;;;1.90;1.80;;;16.90;99.90;;;;;;7350975;19;20415;-79
2022/06/08 01:52:30;;;;;;;2.80;2.20;;;16.90;99.90;;;;;;7358396;19;20407;-78
2022/06/08 01:55:12;;;;;;;2.27;2.07;;;16.90;99.90;;;;;;7361467;19;20894;-79
2022/06/08 01:57:54;;;;;;;3.63;2.27;;;16.90;99.90;;;;;;7360905;19;21231;-78
2022/06/08 02:00:27;;;;;;;2.80;1.70;;;16.90;99.90;;;;;;7357512;19;21414;-79
2022/06/08 02:03:08;;;;;;;2.27;1.90;;;16.90;99.90;;;;;;7375710;19;20470;-79
2022/06/08 02:05:47;;;;;;;4.00;2.17;;;16.90;99.90;;;;;;7375353;19;20371;-78
2022/06/08 02:08:26;;;;;;;2.47;2.13;;;16.90;99.90;;;;;;7376003;19;20428;-79
2022/06/08 02:11:02;;;;;;;3.80;2.33;;;17.00;99.90;;;;;;7374808;19;20953;-78
2022/06/08 02:13:40;;;;;;;3.90;1.90;;;17.00;99.90;;;;;;7376597;19;20904;-79
2022/06/08 02:16:17;;;;;;;2.50;2.00;;;17.00;99.90;;;;;;7376956;19;20408;-78
2022/06/08 02:18:56;;;;;;;2.70;2.50;;;16.90;99.90;;;;;;7373680;19;20404;-78
2022/06/08 02:21:33;;;;;;;1.77;1.67;;;16.70;99.90;;;;;;7374532;19;20427;-79
2022/06/08 02:24:14;;;;;;;4.17;1.97;;;16.60;99.90;;;;;;7376253;19;20416;-78
2022/06/08 02:26:50;;;;;;;2.00;1.90;;;16.60;99.90;;;;;;7376386;19;20528;-79
2022/06/08 02:29:29;;;;;;;2.20;1.80;;;16.60;99.90;;;;;;7374554;19;20535;-80
2022/06/08 02:32:02;;;;;;;5.77;2.13;;;16.50;99.90;;;;;;7375199;19;20400;-79
2022/06/08 02:34:36;;;;;;;3.10;2.17;;;16.50;99.90;;;;;;7376591;19;20950;-80
2022/06/08 02:37:13;;;;;;;3.17;1.90;;;16.40;99.90;;;;;;7372276;19;21000;-77
2022/06/08 02:39:47;;;;;;;3.63;1.80;;;16.40;99.90;;;;;;7376016;19;20384;-80
2022/06/08 02:42:23;;;;;;;1.93;1.73;;;16.40;99.90;;;;;;7370473;19;20428;-78
2022/06/08 02:44:57;;;;;;;4.03;1.83;;;16.50;99.90;;;;;;7373595;19;20408;-78
2022/06/08 02:47:32;;;;;;;4.90;2.30;;;16.50;99.90;;;;;;7366508;19;20408;-78
2022/06/08 02:50:16;;;;;;;2.00;1.90;;;16.60;99.90;;;;;;7370785;19;20407;-78
2022/06/08 02:52:48;;;;;;;4.50;1.90;;;16.60;99.90;;;;;;7373614;19;20414;-78
2022/06/08 02:55:24;;;;;;;3.17;2.10;;;16.70;99.90;;;;;;7374864;19;20549;-77
2022/06/08 02:58:01;;;;;;;4.87;2.20;;;16.70;99.90;;;;;;7369726;19;20982;-78
2022/06/08 03:00:37;;;;;;;3.80;1.77;;;16.60;99.90;;;;;;7357599;19;20404;-79
2022/06/08 03:03:13;;;;;;;2.10;2.00;;;16.60;99.90;;;;;;7350517;19;20495;-78
2022/06/08 03:05:47;;;;;;;2.77;2.10;;;16.60;99.90;;;;;;7355428;19;20443;-78
2022/06/08 03:08:21;;;;;;;2.87;1.93;;;16.40;99.90;;;;;;7354289;19;20429;-79
2022/06/08 03:10:52;;;;;;;2.60;1.90;;;16.40;99.90;;;;;;7364079;19;20442;-78
2022/06/08 03:13:29;;;;;;;5.73;2.10;;;16.60;99.90;;;;;;7362084;19;20415;-79
2022/06/08 03:16:02;;;;;;;2.17;1.97;;;16.70;99.90;;;;;;7349782;19;20400;-79
2022/06/08 03:18:32;;;;;;;2.30;2.10;;;16.70;99.90;;;;;;7344820;19;20408;-78
2022/06/08 03:21:07;;;;;;;2.23;1.97;;;16.80;99.90;;;;;;7338646;19;20413;-79
2022/06/08 03:23:40;;;;;;;5.17;1.90;;;17.00;99.90;;;;;;7349085;19;20423;-79
2022/06/08 03:26:09;;;;;;;2.23;1.73;;;16.90;99.90;;;;;;7361051;19;21252;-79
2022/06/08 03:28:41;;;;;;;4.27;1.97;;;16.90;99.90;;;;;;7361093;19;20920;-79
2022/06/08 03:31:11;;;;;;;4.40;2.20;;;16.90;99.90;;;;;;7353689;19;20436;-79
2022/06/08 03:33:43;;;;;;;2.43;2.23;;;16.90;99.90;;;;;;7337009;19;20426;-79
2022/06/08 03:36:15;;;;;;;3.07;2.30;;;17.00;99.90;;;;;;7355627;19;20391;-79
2022/06/08 03:38:47;;;;;;;2.57;1.57;;;16.90;99.90;;;;;;7354670;19;20557;-78
2022/06/08 03:41:17;;;;;;;3.20;2.17;;;17.00;99.90;;;;;;7353331;19;20416;-79
2022/06/08 03:43:49;;;;;;;2.30;2.10;;;17.00;99.90;;;;;;7360340;19;20436;-78
2022/06/08 03:46:22;;;;;;;6.63;2.30;;;17.00;99.90;;;;;;7341474;19;20420;-79
2022/06/08 03:48:52;;;;;;;3.50;2.20;;;17.00;99.90;;;;;;7352762;19;20404;-79
2022/06/08 03:51:27;;;;;;;1.97;1.50;;;17.10;99.90;;;;;;7328671;19;21254;-78
2022/06/08 03:54:01;;;;;;;2.53;2.10;;;17.10;99.90;;;;;;7366024;19;20989;-79
2022/06/08 03:56:33;;;;;;;3.30;1.87;;;17.10;99.90;;;;;;7363187;19;20431;-79
2022/06/08 03:59:05;;;;;;;2.70;1.80;;;17.00;99.90;;;;;;7361969;19;20439;-79
2022/06/08 04:01:36;;;;;;;3.80;1.80;;;17.00;99.90;;;;;;7346238;19;20372;-78
2022/06/08 04:04:06;;;;;;;4.40;2.00;;;17.10;99.90;;;;;;7352803;19;22041;-79
2022/06/08 04:06:36;;;;;;;2.27;1.60;;;17.10;99.90;;;;;;7343115;19;20952;-78
2022/06/08 04:09:06;;;;;;;2.63;1.80;;;17.20;99.90;;;;;;7353481;19;20912;-79
2022/06/08 04:11:38;;;;;;;3.77;2.00;;;17.20;99.90;;;;;;7345739;19;21359;-78
2022/06/08 04:14:11;;;;;;;4.90;2.10;;;17.30;99.90;;;;;;7351676;19;20879;-78
2022/06/08 04:16:42;;;;;;;3.03;2.23;;;17.40;99.90;;;;;;7352217;19;20432;-78
2022/06/08 04:19:14;;;;;;;2.97;1.90;;;17.50;99.90;;;;;;7353679;19;20828;-78
2022/06/08 04:21:44;;;;;;;3.70;1.97;;;17.70;99.90;;;;;;7355099;19;21376;-79
2022/06/08 04:24:20;;;;;;;2.13;1.93;;;17.80;99.90;;;;;;7372702;19;20413;-79
2022/06/08 04:26:56;;;;;;;3.63;2.10;;;17.80;99.90;;;;;;7371149;19;20435;-78
2022/06/08 04:29:37;;;;;;;2.23;1.80;;;17.70;99.90;;;;;;7372595;19;20404;-78
2022/06/08 04:32:09;;;;;;;3.20;2.00;;;17.80;99.90;;;;;;7367858;19;21106;-78
2022/06/08 04:34:44;;;;;;;3.50;1.93;;;17.80;99.90;;;;;;7370903;19;20411;-78
2022/06/08 04:37:16;;;;;;;4.00;2.20;;;17.80;99.90;;;;;;7373791;19;20440;-78
2022/06/08 04:39:50;;;;;;;3.00;1.30;;;17.70;99.90;;;;;;7366839;19;20411;-78
2022/06/08 04:42:22;;;;;;;4.23;1.80;;;17.60;99.90;;;;;;7351268;19;20525;-79
2022/06/08 04:44:54;;;;;;;2.50;1.50;;;17.60;99.90;;;;;;7326142;19;20912;-79
2022/06/08 04:47:25;;;;;;;6.07;3.33;;;17.60;99.90;;;;;;7350834;19;20439;-79
2022/06/08 04:49:55;;;;;;;5.97;2.53;;;17.60;99.90;;;;;;7340973;19;21680;-78
2022/06/08 04:52:28;;;;;;;4.93;2.10;;;17.70;99.90;;;;;;7346201;19;20412;-78
2022/06/08 04:54:59;;;;;;;3.60;2.13;;;17.60;99.90;;;;;;7358315;19;21106;-78
2022/06/08 04:57:30;;;;;;;3.60;2.00;;;17.60;99.90;;;;;;7346482;19;20463;-79
2022/06/08 05:00:04;;;;;;;3.07;1.63;;;17.70;99.90;;;;;;7342530;19;20411;-78
2022/06/08 05:02:47;;;;;;;3.43;1.80;;;17.70;99.90;;;;;;7346419;19;20853;-79
2022/06/08 05:05:30;;;;;;;4.23;2.17;;;17.70;99.90;;;;;;7356683;19;21142;-77
2022/06/08 05:08:03;;;;;;;4.10;2.53;;;17.70;99.90;;;;;;7347538;19;20407;-78
2022/06/08 05:10:37;;;;;;;3.57;2.50;;;17.60;99.90;;;;;;7352583;19;20423;-78
2022/06/08 05:13:10;;;;;;;2.50;2.30;;;17.70;99.90;;;;;;7369293;19;20406;-77
2022/06/08 05:15:46;;;;;;;3.20;2.27;;;17.70;99.90;;;;;;7367017;19;20375;-78
2022/06/08 05:18:18;;;;;;;6.90;5.30;;;17.80;99.90;;;;;;7356333;19;20424;-78
2022/06/08 05:20:49;;;;;;;3.73;2.40;;;17.80;99.90;;;;;;7367068;19;20396;-77
2022/06/08 05:23:25;;;;;;;4.57;2.60;;;18.00;99.90;;;;;;7367608;19;20408;-79
2022/06/08 05:25:56;;;;;;;9.30;5.20;;;18.10;99.90;;;;;;7369308;19;21023;-78
2022/06/08 05:28:26;;;;;;;4.40;2.17;;;18.20;99.90;;;;;;7361270;19;20416;-78
2022/06/08 05:31:03;;;;;;;13.10;6.20;;;18.30;99.90;;;;;;7358146;19;20412;-78
2022/06/08 05:33:37;;;;;;;3.27;2.37;;;18.30;99.90;;;;;;7355023;19;20836;-78
2022/06/08 05:36:17;;;;;;;4.40;1.63;;;18.50;99.90;;;;;;7361942;19;20440;-78
2022/06/08 05:38:48;;;;;;;12.50;3.67;;;18.50;99.90;;;;;;7363320;19;20408;-80
2022/06/08 05:41:18;;;;;;;3.50;2.40;;;18.60;99.90;;;;;;7371234;19;20440;-82
2022/06/08 05:43:48;;;;;;;5.57;2.10;;;18.60;99.90;;;;;;7362261;19;20472;-79
2022/06/08 05:46:21;;;;;;;4.27;2.33;;;18.90;99.90;;;;;;7362826;19;20403;-79
2022/06/08 05:48:55;;;;;;;11.77;4.43;;;18.70;99.90;;;;;;7362059;19;21040;-79
2022/06/08 05:51:27;;;;;;;2.13;1.60;;;18.80;99.90;;;;;;7359065;19;21062;-81
2022/06/08 05:53:58;;;;;;;2.87;1.70;;;18.60;99.90;;;;;;7356668;19;20414;-80
2022/06/08 05:56:27;;;;;;;2.00;1.23;;;18.60;99.90;;;;;;7356389;19;20440;-79
2022/06/08 05:58:57;;;;;;;2.83;1.57;;;18.70;99.90;;;;;;7351443;19;20416;-80
2022/06/08 06:01:30;;;;;;;2.50;1.83;;;18.80;99.90;;;;;;7360580;19;20372;-80
2022/06/08 06:04:03;;;;;;;2.30;2.10;;;18.90;99.90;;;;;;7369076;19;21391;-80
2022/06/08 06:06:33;;;;;;;3.20;1.30;;;19.00;99.90;;;;;;7362460;19;20379;-79
2022/06/08 06:09:05;;;;;;;5.03;2.20;;;19.00;99.90;;;;;;7370020;19;20419;-80
2022/06/08 06:11:37;;;;;;;3.60;2.07;;;19.20;99.90;;;;;;7369780;19;20429;-80
2022/06/08 06:14:10;;;;;;;4.60;1.90;;;19.50;99.90;;;;;;7369371;19;20420;-80
2022/06/08 06:16:47;;;;;;;2.47;1.53;;;19.80;99.90;;;;;;7348798;19;20738;-79
2022/06/08 06:19:16;;;;;;;3.20;1.30;;;20.00;98.50;;;;;;7350140;19;20416;-80
2022/06/08 06:22:04;;;;;;;2.03;1.30;;;20.10;97.30;;;;;;7365318;19;20451;-80
2022/06/08 06:25:09;;;;;;;4.17;1.77;;;20.30;96.50;;;;;;7346618;19;20407;-80
2022/06/08 06:28:05;;;;;;;5.37;1.53;;;20.40;95.70;;;;;;7342855;19;20416;-77
2022/06/08 06:31:05;;;;;;;1.33;0.93;;;20.40;95.80;;;;;;7355713;19;21209;-79
2022/06/08 06:33:50;;;;;;;3.33;1.40;;;20.50;95.00;;;;;;7358560;19;20995;-79
2022/06/08 06:36:20;;;;;;;3.27;1.43;;;20.60;95.20;;;;;;7361895;19;20408;-80
2022/06/08 06:38:51;;;;;;;2.73;1.10;;;20.70;94.70;;;;;;7364789;19;20423;-79
2022/06/08 06:41:23;;;;;;;6.10;1.30;;;20.90;93.40;;;;;;7375012;19;20414;-81
2022/06/08 06:43:54;;;;;;;2.20;1.60;;;21.00;93.70;;;;;;7370782;19;20416;-82
2022/06/08 06:46:34;;;;;;;3.43;1.90;;;21.20;93.10;;;;;;7353742;19;20424;-81
2022/06/08 06:49:22;;;;;;;3.07;1.53;;;21.30;92.00;;;;;;7365985;19;21139;-80
2022/06/08 06:51:54;;;;;;;3.27;1.77;;;21.40;91.90;;;;;;7351602;19;20411;-78
2022/06/08 06:54:25;;;;;;;2.67;1.20;;;21.40;91.40;;;;;;7336930;19;20420;-80
2022/06/08 06:56:55;;;;;;;2.07;1.20;;;21.50;91.90;;;;;;7351442;19;21919;-80
2022/06/08 06:59:31;;;;;;;3.27;1.47;;;21.70;91.20;;;;;;7362006;19;20483;-80
2022/06/08 07:02:01;;;;;;;4.20;1.60;;;21.80;90.70;;;;;;7380251;19;20415;-78
2022/06/08 07:04:34;;;;;;;4.10;1.20;;;21.70;90.10;;;;;;7384366;19;20404;-79
2022/06/08 07:07:05;;;;;;;4.77;1.30;;;21.70;90.70;;;;;;7374015;19;20404;-80
2022/06/08 07:09:38;;;;;;;2.53;1.70;;;21.80;90.70;;;;;;7382353;19;20408;-79
2022/06/08 07:12:10;;;;;;;5.23;1.27;;;21.90;89.90;;;;;;7382571;19;20728;-79
2022/06/08 07:14:44;;;;;;;2.33;1.10;;;22.00;88.80;;;;;;7374886;19;20441;-80
2022/06/08 07:17:19;;;;;;;5.70;1.73;;;21.90;88.70;;;;;;7375363;19;20404;-80
2022/06/08 07:19:52;;;;;;;5.63;1.50;;;22.10;87.10;;;;;;7373819;19;20408;-80
2022/06/08 07:22:24;;;;;;;2.87;1.47;;;22.30;85.90;;;;;;7375582;19;20411;-80
2022/06/08 07:24:53;;;;;;;5.03;1.80;;;22.10;86.20;;;;;;7378478;19;20380;-80
2022/06/08 07:27:28;;;;;;;2.77;1.40;;;22.10;85.50;;;;;;7375778;19;21986;-79
2022/06/08 07:29:57;;;;;;;4.57;1.27;;;22.10;86.50;;;;;;7385376;19;20423;-80
2022/06/08 07:32:27;;;;;;;3.90;1.20;;;22.20;85.40;;;;;;7376579;19;20425;-80
2022/06/08 07:34:59;;;;;;;2.10;1.30;;;21.80;84.50;;;;;;7373196;19;20412;-79
2022/06/08 07:37:29;;;;;;;4.83;1.30;;;21.60;87.00;;;;;;7377165;19;20960;-80
2022/06/08 07:40:03;;;;;;;2.70;1.07;;;21.60;88.10;;;;;;7379379;19;20368;-80
2022/06/08 07:42:32;;;;;;;3.70;1.17;;;21.70;89.30;;;;;;7375910;19;20404;-80
2022/06/08 07:45:02;;;;;;;4.67;1.80;;;21.90;88.00;;;;;;7376681;19;20405;-81
2022/06/08 07:47:31;;;;;;;3.80;1.23;;;22.00;84.70;;;;;;7373013;19;20450;-82
2022/06/08 07:50:01;;;;;;;6.60;1.40;;;21.90;85.30;;;;;;7375815;19;20446;-83
2022/06/08 07:52:30;;;;;;;3.17;1.20;;;22.00;84.40;;;;;;7374037;19;20428;-84
2022/06/08 07:55:00;;;;;;;4.60;1.40;;;22.10;85.70;;;;;;7373784;19;21004;-82
2022/06/08 07:57:33;;;;;;;2.03;1.53;;;22.30;83.80;;;;;;7370820;19;20459;-81
2022/06/08 08:00:02;;;;;;;2.07;1.20;;;22.30;83.30;;;;;;7372054;19;20419;-82
2022/06/08 08:02:32;;;;;;;2.20;1.17;;;22.30;82.10;;;;;;7375715;19;20416;-82
2022/06/08 08:05:04;;;;;;;2.77;1.43;;;22.30;82.10;;;;;;7369795;19;20919;-81
2022/06/08 08:07:34;;;;;;;3.33;1.07;;;22.20;79.10;;;;;;7370499;19;20451;-80
2022/06/08 08:10:03;;;;;;;4.60;1.67;;;22.20;81.80;;;;;;7373701;19;20408;-81
2022/06/08 08:12:33;;;;;;;4.30;1.67;;;22.30;82.20;;;;;;7375147;19;20372;-82
2022/06/08 08:15:02;;;;;;;2.20;1.20;;;22.40;83.60;;;;;;7372057;19;20408;-81
2022/06/08 08:17:35;;;;;;;2.40;1.20;;;22.70;83.40;;;;;;7376193;19;20473;-82
2022/06/08 08:20:11;;;;;;;2.50;1.40;;;22.90;79.80;;;;;;7373142;19;20456;-81
2022/06/08 08:22:41;;;;;;;1.80;1.10;;;23.10;78.00;;;;;;7372913;19;20867;-82
2022/06/08 08:25:12;;;;;;;1.97;1.20;;;23.20;74.10;;;;;;7375966;19;20424;-80
2022/06/08 08:27:42;;;;;;;3.43;1.30;;;23.30;74.00;;;;;;7371878;19;20416;-80
2022/06/08 08:30:14;;;;;;;3.33;1.30;;;23.30;75.00;;;;;;7375500;19;20997;-81
2022/06/08 08:32:43;;;;;;;4.00;1.90;;;23.10;73.60;;;;;;7374383;19;20996;-80
2022/06/08 08:35:21;;;;;;;3.27;1.10;;;23.20;74.30;;;;;;7373450;19;20456;-80
2022/06/08 08:37:54;;;;;;;3.03;1.10;;;23.30;70.40;;;;;;7371908;19;20412;-81
2022/06/08 08:40:39;;;;;;;2.33;0.90;;;23.40;70.40;;;;;;7372944;19;20978;-81
2022/06/08 08:43:10;;;;;;;3.13;1.30;;;23.70;71.70;;;;;;7370209;19;20400;-81
2022/06/08 08:45:50;;;;;;;3.10;1.20;;;24.00;68.50;;;;;;7372661;19;20762;-81
2022/06/08 08:48:29;;;;;;;4.17;1.20;;;24.20;67.20;;;;;;7369218;19;20415;-81
2022/06/08 08:51:11;;;;;;;3.93;1.10;;;24.50;64.00;;;;;;7371978;19;21137;-80
2022/06/08 08:53:50;;;;;;;3.80;1.43;;;24.60;63.40;;;;;;7363418;19;20754;-80
2022/06/08 08:56:30;;;;;;;5.23;1.23;;;24.70;64.10;;;;;;7368247;19;20439;-80
2022/06/08 08:59:01;;;;;;;2.10;1.00;;;25.10;62.30;;;;;;7369234;19;20440;-79
2022/06/08 09:01:33;;;;;;;1.80;0.83;;;25.30;61.70;;;;;;7363043;19;20412;-81
2022/06/08 09:04:07;;;;;;;2.33;1.00;;;25.30;60.00;;;;;;7363807;19;20404;-80
2022/06/08 09:06:40;;;;;;;3.73;1.30;;;25.30;61.30;;;;;;7368346;19;20400;-81
2022/06/08 09:09:15;;;;;;;4.10;1.27;;;25.50;59.90;;;;;;7367989;19;20500;-81
2022/06/08 09:11:47;;;;;;;2.80;0.97;;;25.60;59.80;;;;;;7366939;19;20404;-81
2022/06/08 09:14:24;;;;;;;2.70;1.33;;;25.80;57.40;;;;;;7362678;19;20407;-81
2022/06/08 09:17:15;;;;;;;3.93;1.10;;;26.10;57.40;;;;;;7363772;19;20403;-84
2022/06/08 09:19:46;;;;;;;2.37;0.93;;;26.60;55.80;;;;;;7367545;19;20960;-82
2022/06/08 09:22:31;;;;;;;3.33;1.00;;;27.10;52.80;;;;;;7361443;19;21015;-79
2022/06/08 09:25:03;;;;;;;1.63;1.00;;;27.00;51.40;;;;;;7361345;19;20416;-80
2022/06/08 09:27:36;;;;;;;3.00;1.20;;;27.20;52.20;;;;;;7370359;19;20412;-80
2022/06/08 09:30:18;;;;;;;2.47;1.30;;;27.50;52.70;;;;;;7364830;19;20412;-80
2022/06/08 09:32:50;;;;;;;1.87;0.80;;;28.10;50.80;;;;;;7366288;19;20404;-80
2022/06/08 09:35:29;;;;;;;2.40;1.07;;;28.40;49.70;;;;;;7359432;19;22132;-82
2022/06/08 09:38:06;;;;;;;2.60;1.20;;;28.50;48.40;;;;;;7359804;19;20758;-81
2022/06/08 09:40:43;;;;;;;1.77;1.10;;;28.70;49.10;;;;;;7363010;19;20412;-82
2022/06/08 09:43:57;;;;;;;2.07;1.10;;;29.20;47.90;;;;;;7369580;19;20920;-82
2022/06/08 09:51:25;;;;;;;1.53;0.90;;;29.70;46.30;;;;;;7367422;19;20447;-81
2022/06/08 09:52:31;;;;;;;2.40;1.20;;;30.70;40.20;;;;;;7370450;19;21247;-82
2022/06/08 09:55:15;;;;;;;2.30;0.87;;;30.60;40.30;;;;;;7365376;19;20408;-81
2022/06/08 09:57:50;;;;;;;2.70;1.07;;;30.90;39.40;;;;;;7357134;19;20427;-81
2022/06/08 10:00:35;;;;;;;2.90;1.00;;;31.40;38.60;;;;;;7360138;19;20412;-81
2022/06/08 10:03:37;;;;;;;4.20;1.10;;;31.50;39.00;;;;;;7364478;19;20397;-81
2022/06/08 10:06:18;;;;;;;2.53;1.03;;;32.30;37.80;;;;;;7370021;19;21211;-82
2022/06/08 10:08:59;;;;;;;2.10;0.70;;;32.90;36.40;;;;;;7379768;19;20428;-81
2022/06/08 10:11:43;;;;;;;2.10;1.00;;;32.80;36.00;;;;;;7374875;19;20427;-82
2022/06/08 10:14:25;;;;;;;3.20;0.90;;;32.30;35.10;;;;;;7378800;19;20947;-82
2022/06/08 10:16:59;;;;;;;3.17;0.77;;;31.20;35.50;;;;;;7378940;19;20419;-81
2022/06/08 10:19:36;;;;;;;0.70;0.50;;;31.10;35.70;;;;;;7379334;19;20416;-82
2022/06/08 10:22:07;;;;;;;5.03;1.17;;;31.20;36.00;;;;;;7355874;19;20400;-82
2022/06/08 10:24:50;;;;;;;1.63;0.70;;;31.50;35.50;;;;;;7376283;19;20434;-82
2022/06/08 10:27:27;;;;;;;1.70;0.80;;;31.10;34.90;;;;;;7376579;19;20396;-82
2022/06/08 10:30:07;;;;;;;1.73;0.80;;;30.70;36.00;;;;;;7372037;19;20429;-82
2022/06/08 10:32:42;;;;;;;1.63;0.83;;;30.50;35.30;;;;;;7380806;19;20403;-82
2022/06/08 10:35:27;;;;;;;3.23;1.03;;;30.40;37.00;;;;;;7372778;19;20467;-82
2022/06/08 10:37:57;;;;;;;2.90;1.17;;;31.40;35.80;;;;;;7370494;19;20776;-82
2022/06/08 10:40:37;;;;;;;3.00;0.90;;;32.00;33.80;;;;;;7375640;19;20467;-82
2022/06/08 10:43:18;;;;;;;2.43;0.87;;;32.80;33.20;;;;;;7377312;19;20919;-81
2022/06/08 10:45:57;;;;;;;1.67;0.90;;;33.90;32.10;;;;;;7373795;19;20416;-82
2022/06/08 10:48:44;;;;;;;2.50;0.80;;;35.30;30.50;;;;;;7371729;19;20427;-82
2022/06/08 10:51:39;;;;;;;1.80;0.80;;;36.20;29.10;;;;;;7376244;19;20416;-82
2022/06/08 10:57:47;;;;;;;3.63;1.00;;;36.80;27.00;;;;;;7370072;19;20436;-82
2022/06/08 11:00:30;;;;;;;3.50;1.03;;;36.50;27.00;;;;;;7371778;19;20507;-82
2022/06/08 11:03:05;;;;;;;2.10;1.00;;;37.00;26.70;;;;;;7374269;19;20427;-82
2022/06/08 11:05:40;;;;;;;2.20;0.73;;;37.10;26.60;;;;;;7375408;19;20435;-82
2022/06/08 11:08:23;;;;;;;2.73;0.90;;;37.30;26.00;;;;;;7372417;19;20940;-82
2022/06/08 11:11:00;;;;;;;1.93;0.90;;;37.50;24.70;;;;;;7376941;19;20408;-81
2022/06/08 11:13:38;;;;;;;2.23;0.87;;;38.00;25.00;;;;;;7376139;19;22288;-81
2022/06/08 11:16:20;;;;;;;0.93;0.57;;;37.90;25.50;;;;;;7373064;19;20407;-81
2022/06/08 11:18:56;;;;;;;2.80;0.77;;;37.60;24.60;;;;;;7376337;19;21003;-81
2022/06/08 11:21:46;;;;;;;1.43;0.70;;;37.30;25.10;;;;;;7372364;19;20911;-82
2022/06/08 11:24:29;;;;;;;2.23;0.90;;;37.30;25.50;;;;;;7373016;19;20420;-81
2022/06/08 11:27:28;;;;;;;1.10;0.50;;;38.10;25.30;;;;;;7370227;19;21457;-81
2022/06/08 11:30:02;;;;;;;2.40;0.80;;;38.10;24.40;;;;;;7369255;19;20495;-82
2022/06/08 11:33:17;;;;;;;1.27;0.70;;;37.00;24.70;;;;;;7372230;19;20932;-81
2022/06/08 11:36:19;;;;;;;2.20;0.83;;;37.60;25.30;;;;;;7367596;19;20424;-82
2022/06/08 11:39:01;;;;;;;3.90;0.90;;;37.60;24.40;;;;;;7372875;19;20429;-81
2022/06/08 11:41:41;;;;;;;1.83;0.50;;;36.80;24.40;;;;;;7375571;19;20376;-80
2022/06/08 11:44:18;;;;;;;1.40;0.63;;;34.80;26.30;;;;;;7373931;19;20424;-80
2022/06/08 11:46:53;;;;;;;2.60;0.80;;;33.60;27.90;;;;;;7373127;19;20544;-81
2022/06/08 11:49:40;;;;;;;1.80;1.00;;;33.10;28.00;;;;;;7373403;19;20935;-80
2022/06/08 11:52:41;;;;;;;2.03;0.70;;;32.80;28.50;;;;;;7370908;19;20403;-81
2022/06/08 11:55:18;;;;;;;1.67;0.90;;;32.60;29.30;;;;;;7373348;19;20435;-81
2022/06/08 11:57:55;;;;;;;1.63;0.80;;;31.90;30.20;;;;;;7372108;19;20451;-80
2022/06/08 12:00:34;;;;;;;1.97;0.90;;;31.30;30.20;;;;;;7374576;19;20400;-80
2022/06/08 12:03:08;;;;;;;1.80;0.80;;;30.80;31.40;;;;;;7376741;19;21575;-80
2022/06/08 12:05:39;;;;;;;1.87;0.67;;;30.50;31.90;;;;;;7373487;19;20414;-80
2022/06/08 12:08:20;;;;;;;1.23;0.63;;;30.10;30.70;;;;;;7368969;19;21544;-80
2022/06/08 12:10:55;;;;;;;1.93;1.07;;;30.00;31.60;;;;;;7374276;19;20988;-81
2022/06/08 12:13:27;;;;;;;1.87;0.93;;;29.90;31.80;;;;;;7373930;19;20421;-81
2022/06/08 12:16:04;;;;;;;2.30;0.70;;;30.60;31.70;;;;;;7370864;19;20535;-81
2022/06/08 12:18:44;;;;;;;4.13;0.90;;;32.40;29.40;;;;;;7372319;19;20632;-82
2022/06/08 12:21:29;;;;;;;1.37;0.63;;;34.10;27.20;;;;;;7370995;19;20400;-81
2022/06/08 12:24:08;;;;;;;3.07;0.83;;;34.60;26.80;;;;;;7375994;19;20460;-82
2022/06/08 12:26:55;;;;;;;2.17;1.43;;;34.60;26.50;;;;;;7370745;19;20421;-81
2022/06/08 12:29:50;;;;;;;3.37;0.70;;;33.80;27.10;;;;;;7373495;19;20408;-81
2022/06/08 12:32:34;;;;;;;2.00;0.83;;;32.40;28.10;;;;;;7370593;19;20427;-82
2022/06/08 12:35:28;;;;;;;1.30;0.87;;;31.50;29.00;;;;;;7368841;19;20413;-82
2022/06/08 12:38:22;;;;;;;3.03;1.10;;;31.00;29.70;;;;;;7371675;19;20439;-81
2022/06/08 12:41:10;;;;;;;2.47;0.70;;;30.50;30.90;;;;;;7369849;19;20412;-81
2022/06/08 12:43:46;;;;;;;1.33;0.80;;;30.20;31.80;;;;;;7349557;19;20507;-81
2022/06/08 12:46:25;;;;;;;3.93;0.70;;;29.70;31.20;;;;;;7355184;19;20422;-81
2022/06/08 12:49:16;;;;;;;1.63;0.80;;;29.10;32.70;;;;;;7369244;19;20422;-83
2022/06/08 12:51:52;;;;;;;1.37;0.57;;;28.70;33.50;;;;;;7371360;19;20404;-81
2022/06/08 12:54:30;;;;;;;2.87;0.87;;;28.80;33.90;;;;;;7377447;19;20407;-80
2022/06/08 12:57:14;;;;;;;2.63;0.80;;;28.90;33.60;;;;;;7371907;19;20997;-84
2022/06/08 12:59:47;;;;;;;2.70;0.93;;;29.40;33.60;;;;;;7371572;19;20401;-84
2022/06/08 13:02:21;;;;;;;4.03;0.90;;;30.00;33.10;;;;;;7366516;19;20404;-84
2022/06/08 13:04:52;;;;;;;3.47;0.73;;;30.30;32.00;;;;;;7360533;19;20409;-84
2022/06/08 13:07:25;;;;;;;1.87;0.80;;;30.60;30.50;;;;;;7362278;19;20960;-84
2022/06/08 13:09:55;;;;;;;3.90;0.83;;;31.00;30.50;;;;;;7367560;19;20913;-81
2022/06/08 13:12:31;;;;;;;4.63;1.43;;;30.90;30.00;;;;;;7376572;19;20392;-84
2022/06/08 13:15:01;;;;;;;2.13;1.83;;;30.50;31.10;;;;;;7362839;19;20448;-81
2022/06/08 13:17:31;;;;;;;2.20;1.23;;;29.90;31.60;;;;;;7343164;19;20451;-85
2022/06/08 13:20:04;;;;;;;2.47;1.33;;;29.70;31.50;;;;;;7376602;19;20415;-88
2022/06/08 13:22:33;;;;;;;2.17;0.93;;;29.70;32.10;;;;;;7370544;19;20423;-80
2022/06/08 13:25:07;;;;;;;1.10;0.80;;;29.70;32.60;;;;;;7371266;19;20404;-86
2022/06/08 13:27:40;;;;;;;4.20;1.20;;;29.70;32.70;;;;;;7372906;19;20416;-83
2022/06/08 13:30:14;;;;;;;1.57;1.00;;;29.40;32.40;;;;;;7369040;19;20771;-87
2022/06/08 13:32:44;;;;;;;1.73;1.00;;;29.30;32.60;;;;;;7373348;19;20775;-82
2022/06/08 13:35:13;;;;;;;2.17;1.27;;;29.40;32.60;;;;;;7370002;19;21247;-83
2022/06/08 13:37:47;;;;;;;12.50;1.27;;;29.60;33.10;;;;;;7375603;19;20416;-90